Time;durP1;ratioP1;P1;durP2;ratioP2;P2;SDS_P1;SDS_P2;PMS_P1;PMS_P2;Temp;Humidity;BMP_temperature;BMP_pressure;BME280_temperature;BME280_humidity;BME280_pressure;Samples;Min_cycle;Max_cycle;Signal;HPM_P1;HPM_P2
2023/07/23 00:00:47;;;;;;;7.30;4.32;;;;;;;10.62;100.00;92980.66;2017929;29;20440;-71
2023/07/23 00:02:08;;;;;;;6.65;4.15;;;;;;;10.61;100.00;92983.78;2025417;29;20060;-71
2023/07/23 00:03:25;;;;;;;8.73;4.45;;;;;;;10.61;100.00;92984.50;2035125;29;20027;-71
2023/07/23 00:04:45;;;;;;;6.63;4.22;;;;;;;10.84;100.00;92986.25;2021034;29;20048;-71
2023/07/23 00:06:08;;;;;;;7.97;4.32;;;;;;;10.71;100.00;92985.41;2024442;29;20670;-70
2023/07/23 00:07:57;;;;;;;8.60;4.10;;;;;;;10.72;100.00;92981.59;2031756;29;20073;-71
2023/07/23 00:09:16;;;;;;;8.07;4.20;;;;;;;10.49;100.00;92977.16;2025646;29;20055;-71
2023/07/23 00:10:31;;;;;;;6.53;3.95;;;;;;;10.60;100.00;92977.66;2026725;29;20679;-71
2023/07/23 00:11:54;;;;;;;9.07;4.45;;;;;;;10.50;100.00;92984.78;2038831;29;20777;-72
2023/07/23 00:13:04;;;;;;;9.57;4.65;;;;;;;10.52;100.00;92981.69;2033715;29;20067;-71
2023/07/23 00:14:23;;;;;;;7.55;4.55;;;;;;;10.59;100.00;92986.88;2029741;29;20087;-73
2023/07/23 00:15:50;;;;;;;7.07;3.90;;;;;;;10.52;100.00;92979.00;2032865;29;20032;-71
2023/07/23 00:17:00;;;;;;;7.75;4.05;;;;;;;10.61;100.00;92986.44;2033689;29;20028;-71
2023/07/23 00:18:19;;;;;;;6.70;3.85;;;;;;;10.38;100.00;92982.03;2030538;29;20028;-72
2023/07/23 00:19:37;;;;;;;7.75;4.28;;;;;;;10.32;100.00;92973.75;2037619;28;20039;-71
2023/07/23 00:20:46;;;;;;;7.93;4.28;;;;;;;10.39;100.00;92984.28;2039672;29;20046;-70
2023/07/23 00:22:05;;;;;;;10.07;4.28;;;;;;;10.34;100.00;92982.84;2042877;29;20117;-71
2023/07/23 00:23:26;;;;;;;10.13;4.47;;;;;;;10.44;100.00;92978.41;2034912;29;20036;-71
2023/07/23 00:24:56;;;;;;;11.82;4.50;;;;;;;10.38;100.00;92974.75;2042159;29;20137;-71
2023/07/23 00:29:06;;;;;;;8.80;3.90;;;;;;;10.34;100.00;92974.84;2021696;29;20033;-70
2023/07/23 00:30:33;;;;;;;9.88;4.57;;;;;;;10.38;100.00;92974.00;2031042;29;20044;-71
2023/07/23 00:31:55;;;;;;;9.65;4.25;;;;;;;10.37;100.00;92975.94;2020181;29;20126;-71
2023/07/23 00:35:27;;;;;;;;;;;;;;;;;;;;;
2023/07/23 00:36:47;;;;;;;10.20;4.10;;;;;;;10.43;100.00;92965.47;2037679;29;20058;-72
2023/07/23 00:38:51;;;;;;;6.03;3.83;;;;;;;10.27;100.00;92967.00;2033033;29;20134;-72
2023/07/23 00:40:14;;;;;;;6.15;3.80;;;;;;;10.46;100.00;92961.97;2036925;29;20151;-72
2023/07/23 00:41:27;;;;;;;9.13;4.13;;;;;;;10.45;100.00;92958.56;2038956;29;20043;-70
2023/07/23 00:42:47;;;;;;;10.30;4.55;;;;;;;10.20;100.00;92961.78;2041495;29;20317;-71
2023/07/23 00:43:57;;;;;;;11.40;4.20;;;;;;;10.42;100.00;92956.72;2047431;28;20042;-70
2023/07/23 00:45:07;;;;;;;;;;;;;;;10.44;100.00;92956.28;2038929;29;20696;-70
2023/07/23 00:46:27;;;;;;;9.52;4.10;;;;;;;10.40;100.00;92959.03;2033911;29;19922;-71
2023/07/23 00:47:42;;;;;;;9.20;4.40;;;;;;;10.41;100.00;92957.16;2045043;29;20039;-71
2023/07/23 00:49:05;;;;;;;9.55;3.92;;;;;;;10.25;100.00;92957.88;2039553;29;20040;-72
2023/07/23 00:50:50;;;;;;;6.03;4.00;;;;;;;10.22;100.00;92954.09;2028887;29;20044;-72
2023/07/23 00:52:02;;;;;;;9.35;4.40;;;;;;;10.35;100.00;92951.53;2031214;29;20047;-74
2023/07/23 00:53:23;;;;;;;12.18;4.32;;;;;;;10.42;100.00;92951.38;2031797;29;20044;-71
2023/07/23 00:54:40;;;;;;;8.23;4.40;;;;;;;10.29;100.00;92947.88;2033157;29;20078;-72
2023/07/23 00:56:16;;;;;;;7.45;4.50;;;;;;;10.52;100.00;92950.38;2029669;29;20044;-73
2023/07/23 00:57:31;;;;;;;6.25;4.18;;;;;;;10.32;100.00;92960.41;2036990;28;20043;-72
2023/07/23 00:58:50;;;;;;;8.48;3.90;;;;;;;10.27;100.00;92950.97;2040469;29;20042;-72
2023/07/23 01:00:01;;;;;;;7.35;4.20;;;;;;;10.23;100.00;92950.28;2025871;29;20738;-72
2023/07/23 01:01:40;;;;;;;6.57;4.03;;;;;;;10.48;100.00;92951.63;2017392;29;20119;-72
2023/07/23 01:02:55;;;;;;;8.18;4.00;;;;;;;10.32;100.00;92949.72;2019587;29;20107;-71
2023/07/23 01:04:13;;;;;;;10.73;4.20;;;;;;;10.31;100.00;92938.25;2032253;29;20063;-72
2023/07/23 01:05:18;;;;;;;7.75;4.45;;;;;;;10.29;100.00;92940.59;2032431;29;20031;-72
2023/07/23 01:08:15;;;;;;;9.48;4.22;;;;;;;10.45;100.00;92934.50;2035803;29;20435;-72
2023/07/23 01:09:29;;;;;;;9.10;4.70;;;;;;;10.40;100.00;92937.66;2024212;29;20040;-71
2023/07/23 01:10:40;;;;;;;6.32;4.10;;;;;;;10.51;100.00;92935.50;2016894;29;20049;-73
2023/07/23 01:12:10;;;;;;;6.80;4.70;;;;;;;10.44;100.00;92932.25;2026934;29;20027;-71
2023/07/23 01:13:47;;;;;;;8.40;4.25;;;;;;;10.53;100.00;92935.81;2022678;29;20032;-71
2023/07/23 01:15:27;;;;;;;11.55;4.25;;;;;;;10.49;100.00;92934.41;2036687;29;20079;-72
2023/07/23 01:17:24;;;;;;;7.63;4.40;;;;;;;10.35;100.00;92938.19;2038520;29;20039;-72
2023/07/23 01:18:33;;;;;;;6.82;4.32;;;;;;;10.42;100.00;92939.94;2032785;29;20627;-72
2023/07/23 01:19:50;;;;;;;6.25;4.10;;;;;;;10.44;100.00;92935.66;2037561;29;20038;-71
2023/07/23 01:21:00;;;;;;;7.30;4.20;;;;;;;10.54;100.00;92937.34;2031116;29;20028;-70
2023/07/23 01:22:17;;;;;;;9.10;4.35;;;;;;;10.38;100.00;92928.59;2028681;29;20044;-71
2023/07/23 01:23:36;;;;;;;;;;;;;;;;;;;;;
2023/07/23 01:24:51;;;;;;;10.05;4.57;;;;;;;10.54;100.00;92936.59;2021499;29;20403;-72
2023/07/23 01:26:14;;;;;;;7.10;4.20;;;;;;;10.51;100.00;92932.84;2031592;29;20036;-71
2023/07/23 01:27:34;;;;;;;9.15;4.53;;;;;;;10.32;100.00;92928.34;2038730;29;20044;-72
2023/07/23 01:29:19;;;;;;;6.82;4.07;;;;;;;10.34;100.00;92931.34;2025718;29;20426;-72
2023/07/23 01:30:47;;;;;;;7.78;3.95;;;;;;;10.44;100.00;92934.91;2033397;29;20048;-73
2023/07/23 01:32:17;;;;;;;7.45;4.40;;;;;;;10.45;100.00;92929.19;2026128;29;20130;-72
2023/07/23 01:34:20;;;;;;;8.45;4.22;;;;;;;10.30;100.00;92928.75;2038886;29;20050;-71
2023/07/23 01:35:59;;;;;;;11.45;4.55;;;;;;;10.44;100.00;92929.56;2020481;29;20052;-72
2023/07/23 01:37:11;;;;;;;5.78;4.07;;;;;;;10.33;100.00;92927.91;2014044;29;20053;-72
2023/07/23 01:38:48;;;;;;;9.18;4.22;;;;;;;10.48;100.00;92922.22;2024760;29;20040;-73
2023/07/23 01:41:48;;;;;;;;;;;;;;;;;;;;;
2023/07/23 01:43:18;;;;;;;6.85;4.07;;;;;;;10.46;100.00;92925.31;2038509;29;20083;-72
2023/07/23 01:44:38;;;;;;;9.55;4.40;;;;;;;10.47;100.00;92923.41;2029089;29;20036;-70
2023/07/23 01:45:58;;;;;;;10.70;4.10;;;;;;;10.45;100.00;92923.09;2026021;29;20052;-72
2023/07/23 01:47:10;;;;;;;7.28;4.15;;;;;;;10.44;100.00;92919.63;2030409;29;20044;-71
2023/07/23 01:48:28;;;;;;;8.15;4.45;;;;;;;10.49;100.00;92931.72;2038837;29;20039;-73
2023/07/23 01:49:42;;;;;;;7.45;4.70;;;;;;;10.43;100.00;92923.47;2041300;29;20066;-71
2023/07/23 01:50:50;;;;;;;6.75;4.55;;;;;;;10.43;100.00;92920.81;2029868;29;20044;-71
2023/07/23 01:52:02;;;;;;;9.50;4.60;;;;;;;10.32;100.00;92918.41;2031647;29;20593;-71
2023/07/23 01:53:14;;;;;;;6.60;4.15;;;;;;;10.30;100.00;92917.31;2021597;29;20029;-71
2023/07/23 01:54:26;;;;;;;9.13;4.07;;;;;;;10.29;100.00;92918.50;2026378;29;20503;-71
2023/07/23 01:55:44;;;;;;;8.00;4.57;;;;;;;10.32;100.00;92921.06;2030072;29;20157;-71
2023/07/23 01:56:53;;;;;;;8.70;4.97;;;;;;;10.31;100.00;92926.81;2040600;29;20039;-71
2023/07/23 01:58:05;;;;;;;6.65;4.43;;;;;;;10.29;100.00;92923.84;2038849;29;20036;-71
2023/07/23 01:59:23;;;;;;;7.78;4.30;;;;;;;10.18;100.00;92916.03;2033186;29;20052;-71
2023/07/23 02:00:35;;;;;;;6.68;4.20;;;;;;;10.15;100.00;92919.56;2030186;29;20044;-71
2023/07/23 02:01:46;;;;;;;7.72;4.63;;;;;;;10.07;100.00;92913.63;2033986;29;20082;-71
2023/07/23 02:03:01;;;;;;;9.10;4.68;;;;;;;10.23;100.00;92920.13;2039284;29;20111;-71
2023/07/23 02:04:10;;;;;;;6.82;4.28;;;;;;;10.25;100.00;92923.16;2027074;29;20104;-71
2023/07/23 02:05:22;;;;;;;5.43;3.80;;;;;;;10.29;100.00;92915.81;2026691;29;20538;-71
2023/07/23 02:06:38;;;;;;;8.02;4.32;;;;;;;10.33;100.00;92919.91;2019287;29;20048;-70
2023/07/23 02:07:55;;;;;;;7.38;4.25;;;;;;;10.32;100.00;92915.00;2029061;29;20073;-72
2023/07/23 02:09:11;;;;;;;10.50;4.70;;;;;;;10.35;100.00;92916.81;2026107;29;20037;-72
2023/07/23 02:10:27;;;;;;;9.95;4.88;;;;;;;10.36;100.00;92920.22;2018095;29;20059;-72
2023/07/23 02:11:38;;;;;;;9.20;4.63;;;;;;;10.31;100.00;92918.81;2034538;29;20071;-71
2023/07/23 02:12:49;;;;;;;8.40;4.10;;;;;;;10.23;100.00;92912.88;2038946;29;20114;-72
2023/07/23 02:14:02;;;;;;;8.07;4.10;;;;;;;10.20;100.00;92908.34;2032034;29;20044;-72
2023/07/23 02:15:28;;;;;;;8.55;4.20;;;;;;;10.18;100.00;92917.94;2029642;29;20127;-71
2023/07/23 02:16:38;;;;;;;11.35;4.47;;;;;;;10.09;100.00;92913.94;2029212;29;20036;-71
2023/07/23 02:17:44;;;;;;;;;;;;;;;10.07;100.00;92910.19;2030178;29;20032;-72
2023/07/23 02:19:03;;;;;;;5.68;3.72;;;;;;;10.09;100.00;92913.94;2036269;29;19919;-71
2023/07/23 02:22:18;;;;;;;;;;;;;;;9.93;100.00;92911.28;2135887;27;20182;-71
2023/07/23 02:23:34;;;;;;;9.70;4.30;;;;;;;10.05;100.00;92907.94;2119162;28;19917;-74
2023/07/23 02:24:45;;;;;;;6.80;3.90;;;;;;;10.02;100.00;92910.69;2111933;27;20056;-73
2023/07/23 02:26:00;;;;;;;6.82;4.55;;;;;;;9.93;100.00;92910.53;2111228;28;20473;-74
2023/07/23 02:27:22;;;;;;;7.72;4.10;;;;;;;9.95;100.00;92908.19;2105951;28;20082;-72
2023/07/23 02:28:43;;;;;;;7.30;4.07;;;;;;;9.87;100.00;92912.91;2116385;27;20039;-74
2023/07/23 02:30:04;;;;;;;12.65;4.45;;;;;;;9.86;100.00;92903.41;2115865;27;20043;-74
2023/07/23 02:31:39;;;;;;;9.00;4.78;;;;;;;9.83;100.00;92904.25;2115660;28;20035;-74
2023/07/23 02:33:35;;;;;;;8.82;4.43;;;;;;;9.74;100.00;92904.81;2113564;28;20034;-73
2023/07/23 02:35:24;;;;;;;7.82;4.00;;;;;;;9.81;100.00;92912.66;2121653;27;20046;-73
2023/07/23 02:36:54;;;;;;;9.32;4.70;;;;;;;9.85;100.00;92915.28;2088780;28;20252;-74
2023/07/23 02:38:24;;;;;;;6.93;4.35;;;;;;;9.82;100.00;92908.84;2103120;28;20135;-73
2023/07/23 02:40:09;;;;;;;7.78;4.03;;;;;;;9.67;100.00;92910.31;2103524;28;20044;-73
2023/07/23 02:41:29;;;;;;;6.45;4.13;;;;;;;9.70;100.00;92908.72;2089899;28;20549;-74
2023/07/23 02:43:19;;;;;;;;;;;;;;;;;;;;;
2023/07/23 02:44:51;;;;;;;9.02;3.95;;;;;;;9.76;100.00;92923.84;2125005;27;20045;-73
2023/07/23 02:46:34;;;;;;;9.68;4.82;;;;;;;9.77;100.00;92916.59;2119811;27;20119;-73
2023/07/23 02:48:06;;;;;;;9.93;4.40;;;;;;;9.68;100.00;92919.81;2105604;28;20047;-73
2023/07/23 02:49:17;;;;;;;6.70;4.53;;;;;;;9.79;100.00;92916.94;2107828;28;20047;-73
2023/07/23 02:50:35;;;;;;;10.73;4.60;;;;;;;9.81;100.00;92909.25;2101637;28;20101;-73
2023/07/23 02:52:25;;;;;;;10.35;4.25;;;;;;;9.82;100.00;92921.44;2102696;28;20441;-74
2023/07/23 02:53:52;;;;;;;8.63;4.82;;;;;;;9.87;100.00;92912.91;2116265;27;20558;-73
2023/07/23 02:55:18;;;;;;;7.53;4.33;;;;;;;9.83;100.00;92915.69;2112443;28;20043;-73
2023/07/23 02:56:42;;;;;;;8.85;4.93;;;;;;;9.83;100.00;92910.34;2111334;27;20452;-73
2023/07/23 02:58:03;;;;;;;8.05;4.43;;;;;;;9.81;100.00;92911.91;2119953;27;20455;-73
2023/07/23 02:59:56;;;;;;;8.05;4.63;;;;;;;9.80;100.00;92919.19;2110554;28;20106;-74
2023/07/23 03:01:39;;;;;;;7.22;4.25;;;;;;;9.80;100.00;92919.19;2111485;27;20039;-73
2023/07/23 03:03:01;;;;;;;10.23;5.05;;;;;;;9.80;100.00;92918.44;2123897;27;20151;-72
2023/07/23 03:04:18;;;;;;;11.18;4.75;;;;;;;9.78;100.00;92924.16;2107686;28;20054;-72
2023/07/23 03:05:32;;;;;;;8.75;4.93;;;;;;;9.79;100.00;92927.63;2112931;27;20549;-72
2023/07/23 03:06:48;;;;;;;13.18;4.70;;;;;;;9.76;100.00;92928.44;2117267;27;20027;-74
2023/07/23 03:09:47;;;;;;;10.15;4.78;;;;;;;9.80;100.00;92923.78;2113639;27;20035;-74
2023/07/23 03:13:14;;;;;;;8.77;4.32;;;;;;;9.79;100.00;92925.69;2117040;28;20036;-73
2023/07/23 03:17:07;;;;;;;10.30;4.57;;;;;;;9.82;100.00;92924.09;2124951;27;20184;-74
2023/07/23 03:18:38;;;;;;;8.32;4.47;;;;;;;9.77;100.00;92927.25;2089711;28;20094;-74
2023/07/23 03:20:41;;;;;;;7.38;4.80;;;;;;;9.77;100.00;92927.25;2066986;28;20046;-74
2023/07/23 03:30:41;;;;;;;7.65;4.80;;;;;;;9.74;100.00;92928.84;2100670;28;20032;-72
2023/07/23 03:32:14;;;;;;;5.82;4.10;;;;;;;9.84;100.00;92927.88;2091057;28;20076;-72
2023/07/23 03:33:31;;;;;;;8.52;4.97;;;;;;;9.83;100.00;92938.94;2074549;28;20029;-73
2023/07/23 03:35:02;;;;;;;6.30;4.25;;;;;;;9.82;100.00;92930.19;2107473;27;20035;-74
2023/07/23 03:36:23;;;;;;;8.68;5.10;;;;;;;9.74;100.00;92920.81;2119730;27;20030;-74
2023/07/23 03:37:37;;;;;;;8.20;4.47;;;;;;;9.82;100.00;92932.84;2111542;28;20405;-74
2023/07/23 03:39:00;;;;;;;6.85;4.05;;;;;;;9.76;100.00;92925.78;2105645;28;20070;-73
2023/07/23 03:40:13;;;;;;;8.70;4.60;;;;;;;9.65;100.00;92922.56;2108549;28;20039;-73
2023/07/23 03:41:40;;;;;;;9.05;4.47;;;;;;;9.55;100.00;92925.03;2104473;28;20043;-73
2023/07/23 03:42:59;;;;;;;7.45;4.57;;;;;;;9.45;100.00;92928.69;2110510;28;20597;-73
2023/07/23 03:44:23;;;;;;;9.35;4.72;;;;;;;9.54;100.00;92928.13;2101036;28;20485;-74
2023/07/23 03:45:38;;;;;;;8.60;4.32;;;;;;;9.50;100.00;92927.47;2108372;28;20039;-74
2023/07/23 03:47:09;;;;;;;7.38;4.43;;;;;;;9.56;100.00;92925.78;2091727;28;20033;-72
2023/07/23 03:48:31;;;;;;;8.23;4.13;;;;;;;9.55;100.00;92922.38;2112601;27;20416;-74
2023/07/23 03:49:43;;;;;;;6.45;4.10;;;;;;;9.51;100.00;92928.97;2109646;27;20503;-73
2023/07/23 03:50:58;;;;;;;7.35;4.55;;;;;;;9.53;100.00;92918.63;2112785;28;20046;-73
2023/07/23 03:52:13;;;;;;;7.68;4.22;;;;;;;9.56;100.00;92915.13;2100226;28;20046;-73
2023/07/23 03:53:27;;;;;;;6.47;4.05;;;;;;;9.47;100.00;92922.94;2109909;27;20539;-73
2023/07/23 03:54:45;;;;;;;6.03;4.03;;;;;;;9.42;100.00;92921.50;2115339;27;20043;-73
2023/07/23 03:56:00;;;;;;;6.07;4.10;;;;;;;9.42;100.00;92918.84;2113045;28;20128;-74
2023/07/23 03:59:09;;;;;;;14.00;4.63;;;;;;;9.38;100.00;92912.81;2098747;27;20044;-74
2023/07/23 04:00:43;;;;;;;10.73;4.50;;;;;;;9.34;100.00;92912.16;2113690;28;20047;-73
2023/07/23 04:02:15;;;;;;;7.97;4.63;;;;;;;9.39;100.00;92918.91;2106432;28;20051;-73
2023/07/23 04:03:34;;;;;;;7.47;4.45;;;;;;;9.50;100.00;92914.13;2112560;27;20035;-73
2023/07/23 04:05:09;;;;;;;9.73;4.63;;;;;;;9.49;100.00;92921.38;2104039;28;20027;-74
2023/07/23 04:06:47;;;;;;;;;;;;;;;;;;;;;
2023/07/23 04:08:29;;;;;;;8.60;4.43;;;;;;;9.59;100.00;92914.31;2114118;27;20043;-74
2023/07/23 04:10:20;;;;;;;9.02;4.40;;;;;;;9.52;100.00;92920.53;2119699;27;20027;-74
2023/07/23 04:11:55;;;;;;;7.15;3.97;;;;;;;9.54;100.00;92920.13;2096455;28;20495;-75
2023/07/23 04:13:46;;;;;;;6.75;4.28;;;;;;;9.52;100.00;92919.78;2106793;28;20509;-74
2023/07/23 04:17:25;;;;;;;7.63;3.75;;;;;;;9.54;100.00;92917.47;2117950;27;20463;-73
2023/07/23 04:18:53;;;;;;;6.95;4.85;;;;;;;9.56;100.00;92923.13;2112977;28;20039;-73
2023/07/23 04:20:21;;;;;;;8.30;4.13;;;;;;;9.59;100.00;92925.72;2111993;27;20486;-73
2023/07/23 04:23:58;;;;;;;8.07;4.35;;;;;;;9.75;100.00;92930.34;2117001;27;20054;-73
2023/07/23 04:25:35;;;;;;;7.82;4.55;;;;;;;9.69;100.00;92931.25;2107797;28;20046;-73
2023/07/23 04:26:48;;;;;;;6.90;4.32;;;;;;;9.65;100.00;92925.22;2105182;28;20073;-74
2023/07/23 04:28:03;;;;;;;7.18;4.25;;;;;;;9.69;100.00;92928.56;2107495;27;20060;-73
2023/07/23 04:31:09;;;;;;;6.93;3.78;;;;;;;9.72;100.00;92928.50;2107595;27;20047;-73
2023/07/23 04:35:01;;;;;;;6.90;4.60;;;;;;;9.84;100.00;92933.22;2085636;28;20130;-72
2023/07/23 04:36:15;;;;;;;8.27;4.13;;;;;;;9.81;100.00;92925.28;2083461;28;20055;-72
2023/07/23 04:37:27;;;;;;;9.02;5.00;;;;;;;9.87;100.00;92930.84;2080770;28;20091;-73
2023/07/23 04:38:45;;;;;;;8.18;4.50;;;;;;;9.88;100.00;92929.69;2071957;28;20074;-73
2023/07/23 04:40:00;;;;;;;10.68;4.78;;;;;;;9.92;100.00;92925.03;2085171;27;20436;-72
2023/07/23 04:41:16;;;;;;;8.90;4.18;;;;;;;9.94;100.00;92928.03;2120952;27;21608;-73
2023/07/23 04:42:35;;;;;;;8.55;4.38;;;;;;;10.08;100.00;92928.47;2119309;27;20054;-73
2023/07/23 04:43:49;;;;;;;5.78;3.85;;;;;;;10.06;100.00;92930.06;2111799;27;20387;-73
2023/07/23 04:48:01;;;;;;;12.50;4.60;;;;;;;10.06;100.00;92924.72;2101585;28;20048;-73
2023/07/23 04:51:35;;;;;;;7.60;4.43;;;;;;;10.12;100.00;92931.06;2088597;27;20116;-70
2023/07/23 04:52:52;;;;;;;8.65;4.95;;;;;;;10.23;100.00;92931.56;2114687;27;20054;-72
2023/07/23 04:54:19;;;;;;;8.93;5.10;;;;;;;10.22;100.00;92929.31;2115238;27;20127;-73
2023/07/23 04:55:41;;;;;;;7.60;4.80;;;;;;;10.28;100.00;92933.03;2105550;28;20039;-73
2023/07/23 04:57:26;;;;;;;7.90;4.55;;;;;;;10.31;100.00;92940.94;2108751;27;20076;-73
2023/07/23 04:58:50;;;;;;;7.05;4.75;;;;;;;10.47;100.00;92939.44;2101993;27;20036;-73
2023/07/23 05:00:05;;;;;;;7.57;4.80;;;;;;;10.52;100.00;92928.22;2105834;28;20024;-72
2023/07/23 05:01:25;;;;;;;7.03;4.60;;;;;;;10.61;100.00;92930.31;2113996;27;20024;-73
2023/07/23 05:02:39;;;;;;;8.75;4.82;;;;;;;10.68;100.00;92927.47;2121775;27;20392;-74
2023/07/23 05:03:51;;;;;;;7.20;4.28;;;;;;;10.73;100.00;92929.63;2115169;27;20034;-73
2023/07/23 05:05:02;;;;;;;7.63;4.25;;;;;;;10.76;100.00;92926.13;2111962;27;20059;-74
2023/07/23 05:06:18;;;;;;;9.95;5.10;;;;;;;10.81;100.00;92929.03;2108865;27;20055;-73
2023/07/23 05:07:28;;;;;;;7.38;4.75;;;;;;;10.83;100.00;92929.34;2113278;27;20028;-74
2023/07/23 05:09:13;;;;;;;12.15;5.43;;;;;;;10.89;100.00;92915.47;2102007;28;20202;-74
2023/07/23 05:10:36;;;;;;;9.57;4.30;;;;;;;10.91;100.00;92924.56;2102967;28;20032;-74
2023/07/23 05:11:56;;;;;;;;;;;;;;;11.03;100.00;92926.56;2093950;28;20041;-74
2023/07/23 05:13:48;;;;;;;;;;;;;;;;;;;;;
2023/07/23 05:15:25;;;;;;;7.88;4.55;;;;;;;11.26;100.00;92920.19;2073247;28;20503;-74
2023/07/23 05:16:51;;;;;;;8.43;4.80;;;;;;;11.31;100.00;92913.56;2097364;28;20054;-74
2023/07/23 05:20:15;;;;;;;9.50;5.10;;;;;;;11.52;100.00;92915.66;2111219;27;20035;-74
2023/07/23 05:21:34;;;;;;;10.90;5.03;;;;;;;11.59;100.00;92920.06;2120932;27;20058;-73
2023/07/23 05:22:55;;;;;;;13.32;5.45;;;;;;;11.78;100.00;92931.75;2111915;28;20051;-74
2023/07/23 05:24:21;;;;;;;8.27;4.65;;;;;;;11.96;100.00;92925.88;2109812;28;20040;-73
2023/07/23 05:26:01;;;;;;;8.50;4.55;;;;;;;12.17;100.00;92927.94;2103637;28;20032;-73
2023/07/23 05:27:11;;;;;;;8.38;4.63;;;;;;;12.42;100.00;92918.34;2117164;27;20039;-74
2023/07/23 05:28:41;;;;;;;8.80;4.68;;;;;;;12.63;100.00;92912.28;2108789;28;20047;-73
2023/07/23 05:30:27;;;;;;;11.07;4.55;;;;;;;12.79;100.00;92916.75;2108733;27;20027;-74
2023/07/23 05:31:52;;;;;;;10.60;4.43;;;;;;;13.05;100.00;92915.47;2108959;28;20031;-75
2023/07/23 05:33:07;;;;;;;8.43;4.75;;;;;;;13.24;100.00;92911.00;2104668;27;20055;-75
2023/07/23 05:34:37;;;;;;;10.90;5.20;;;;;;;13.43;100.00;92917.25;2110787;27;20390;-74
2023/07/23 05:36:30;;;;;;;6.85;4.22;;;;;;;14.18;100.00;92914.47;2116747;27;20416;-75
2023/07/23 05:39:39;;;;;;;8.32;4.50;;;;;;;14.38;100.00;92916.03;2102261;28;20093;-74
2023/07/23 05:41:53;;;;;;;6.50;4.20;;;;;;;14.60;100.00;92912.06;2112879;27;20063;-72
2023/07/23 05:43:16;;;;;;;8.80;4.60;;;;;;;14.75;100.00;92914.94;2090487;28;20052;-74
2023/07/23 05:45:13;;;;;;;7.95;4.55;;;;;;;14.96;100.00;92915.97;2079113;28;20037;-74
2023/07/23 05:46:49;;;;;;;12.07;4.32;;;;;;;15.16;100.00;92920.19;2081306;28;20045;-74
2023/07/23 05:48:15;;;;;;;8.23;4.22;;;;;;;15.23;100.00;92923.31;2096664;27;20050;-74
2023/07/23 05:49:40;;;;;;;7.45;4.25;;;;;;;15.54;100.00;92917.75;2102738;28;20523;-74
2023/07/23 05:51:21;;;;;;;;;;;;;;;;;;;;;
2023/07/23 05:52:51;;;;;;;8.38;4.15;;;;;;;16.34;100.00;92915.72;2114198;27;19915;-73
2023/07/23 05:55:10;;;;;;;8.55;3.97;;;;;;;16.21;100.00;92915.94;2116689;27;20027;-73
2023/07/23 05:56:29;;;;;;;8.98;3.97;;;;;;;16.19;100.00;92925.66;2114330;27;20051;-72
2023/07/23 05:57:40;;;;;;;5.60;3.58;;;;;;;16.33;100.00;92911.50;2118786;27;20088;-73
2023/07/23 05:58:59;;;;;;;5.82;3.55;;;;;;;16.49;100.00;92915.78;2111595;27;20032;-72
2023/07/23 06:00:17;;;;;;;7.00;3.53;;;;;;;16.58;100.00;92927.28;2111874;28;20096;-73
2023/07/23 06:01:33;;;;;;;6.53;3.33;;;;;;;16.77;100.00;92933.34;2103275;27;20043;-74
2023/07/23 06:02:53;;;;;;;5.72;3.50;;;;;;;16.94;100.00;92920.16;2105355;28;20475;-72
2023/07/23 06:04:47;;;;;;;6.50;3.60;;;;;;;16.79;100.00;92922.09;2105602;27;20085;-73
2023/07/23 06:06:09;;;;;;;;;;;;;;;16.76;100.00;92923.00;2115815;27;20519;-74
2023/07/23 06:07:28;;;;;;;6.03;2.80;;;;;;;16.86;100.00;92910.94;2113173;27;19949;-74
2023/07/23 06:09:06;;;;;;;4.65;3.13;;;;;;;16.81;100.00;92914.25;2118202;27;20034;-73
2023/07/23 06:14:46;;;;;;;;;;;;;;;;;;;;;
2023/07/23 06:26:05;;;;;;;3.38;2.30;;;;;;;17.43;100.00;92927.00;2070081;28;20763;-74
2023/07/23 06:29:54;;;;;;;3.15;2.20;;;;;;;17.44;100.00;92920.38;2119014;28;20027;-73
2023/07/23 06:34:01;;;;;;;3.28;2.20;;;;;;;17.91;100.00;92932.28;2050813;28;20103;-73
2023/07/23 06:35:20;;;;;;;5.15;2.40;;;;;;;17.71;100.00;92932.16;2056960;28;20610;-73
2023/07/23 06:37:24;;;;;;;;;;;;;;;;;;;;;
2023/07/23 06:57:16;;;;;;;2.58;2.13;;;;;;;18.58;100.00;92922.47;2028849;29;20040;-74
2023/07/23 07:03:32;;;;;;;2.15;1.70;;;;;;;19.34;100.00;92917.00;1999278;29;20042;-72
2023/07/23 07:05:30;;;;;;;2.92;2.10;;;;;;;19.54;100.00;92918.94;1984393;29;20049;-74
2023/07/23 07:18:49;;;;;;;2.97;1.50;;;;;;;19.33;100.00;92939.91;1990647;29;20107;-72
2023/07/23 07:19:59;;;;;;;2.20;1.50;;;;;;;19.31;100.00;92936.19;2015239;29;20105;-73
2023/07/23 07:21:18;;;;;;;2.35;1.40;;;;;;;19.16;100.00;92935.53;2036127;28;20110;-75
2023/07/23 07:22:39;;;;;;;3.83;1.83;;;;;;;19.04;100.00;92931.94;2063010;28;20038;-73
2023/07/23 07:24:09;;;;;;;3.05;1.50;;;;;;;19.11;100.00;92942.38;2100380;28;20040;-72
2023/07/23 07:25:27;;;;;;;2.95;1.50;;;;;;;19.23;100.00;92940.50;2109185;27;20465;-73
2023/07/23 07:26:47;;;;;;;1.95;1.75;;;;;;;19.15;100.00;92934.03;2117771;27;20035;-73
2023/07/23 07:28:08;;;;;;;5.72;1.40;;;;;;;19.05;100.00;92917.94;2113214;28;20548;-73
2023/07/23 07:29:13;;;;;;;1.50;1.40;;;;;;;19.23;100.00;92930.44;2096493;28;20036;-72
2023/07/23 07:30:21;;;;;;;3.63;1.60;;;;;;;19.57;100.00;92917.97;2113741;27;20090;-73
2023/07/23 07:31:40;;;;;;;1.73;1.27;;;;;;;19.68;100.00;92924.78;2109369;28;20094;-73
2023/07/23 07:33:01;;;;;;;1.40;1.27;;;;;;;19.85;100.00;92929.13;2100387;28;20036;-74
2023/07/23 07:36:45;;;;;;;2.03;1.27;;;;;;;20.08;100.00;92924.63;2118348;27;20118;-73
2023/07/23 07:38:36;;;;;;;1.52;1.40;;;;;;;20.28;100.00;92921.09;2116995;27;20027;-74
2023/07/23 07:40:27;;;;;;;2.17;1.40;;;;;;;20.42;100.00;92924.88;2108072;28;20064;-73
2023/07/23 07:41:49;;;;;;;2.45;1.40;;;;;;;20.38;100.00;92938.69;2107870;28;20027;-73
2023/07/23 07:42:57;;;;;;;1.80;1.60;;;;;;;20.55;95.78;92927.97;2090744;28;20039;-74
2023/07/23 07:44:11;;;;;;;4.68;1.48;;;;;;;20.60;100.00;92921.06;2104395;28;20615;-74
2023/07/23 07:48:04;;;;;;;1.80;1.58;;;;;;;21.03;96.71;92927.22;2108942;28;20511;-73
2023/07/23 07:50:06;;;;;;;;;;;;;;;;;;;;;
2023/07/23 07:52:20;;;;;;;;;;;;;;;;;;;;;
2023/07/23 07:53:42;;;;;;;1.42;1.27;;;;;;;21.02;96.66;92923.00;2055070;28;20046;-73
2023/07/23 07:55:01;;;;;;;1.40;1.30;;;;;;;20.91;93.21;92906.66;2055760;28;20054;-74
2023/07/23 07:57:12;;;;;;;2.13;1.38;;;;;;;20.86;100.00;92910.09;2068111;28;20488;-73
2023/07/23 07:59:24;;;;;;;1.58;1.48;;;;;;;21.06;89.38;92918.09;2044123;28;20043;-74
2023/07/23 08:00:50;;;;;;;1.80;1.40;;;;;;;20.74;100.00;92914.72;2043320;29;20663;-73
2023/07/23 08:06:37;;;;;;;4.00;1.42;;;;;;;21.04;91.42;92914.38;2066763;28;20072;-75
2023/07/23 08:17:37;;;;;;;;;;;;;;;;;;;;;
2023/07/23 08:19:15;;;;;;;;;;;;;;;;;;;;;
2023/07/23 08:23:37;;;;;;;1.05;0.95;;;;;;;21.15;82.27;92902.81;2038570;28;20511;-74
2023/07/23 08:24:39;;;;;;;2.53;1.30;;;;;;;20.99;82.79;92915.84;2038477;29;20052;-74
2023/07/23 08:26:02;;;;;;;2.42;1.40;;;;;;;20.72;83.41;92925.34;2029721;29;20433;-73
2023/07/23 08:27:07;;;;;;;1.73;1.20;;;;;;;20.67;80.38;92928.75;2037099;29;20058;-73
2023/07/23 08:28:23;;;;;;;3.40;1.50;;;;;;;21.06;76.94;92928.22;2039824;28;20099;-74
2023/07/23 08:29:38;;;;;;;1.38;1.27;;;;;;;20.80;79.20;92929.06;2051820;28;20493;-74
2023/07/23 08:30:46;;;;;;;1.30;1.20;;;;;;;20.72;83.42;92930.00;2075231;28;20106;-73
2023/07/23 08:31:55;;;;;;;1.95;1.40;;;;;;;20.58;82.67;92935.13;2078972;28;20044;-74
2023/07/23 08:33:32;;;;;;;2.40;1.40;;;;;;;20.65;85.77;92936.66;2072938;28;20040;-74
2023/07/23 08:34:35;;;;;;;3.22;1.60;;;;;;;20.38;85.53;92933.25;2063902;28;20061;-74
2023/07/23 08:35:40;;;;;;;2.03;1.25;;;;;;;20.49;82.24;92946.16;2069057;28;20140;-75
2023/07/23 08:36:56;;;;;;;2.67;1.40;;;;;;;20.20;84.89;92928.19;2076931;28;20045;-72
2023/07/23 08:37:58;;;;;;;3.58;1.30;;;;;;;20.44;89.31;92933.28;2084262;28;20068;-73
2023/07/23 08:39:04;;;;;;;1.95;1.25;;;;;;;20.35;89.43;92926.06;2087898;28;20040;-73
2023/07/23 08:40:09;;;;;;;1.52;1.42;;;;;;;20.39;88.16;92925.84;2087622;28;20454;-73
2023/07/23 08:41:41;;;;;;;1.92;1.30;;;;;;;20.34;91.25;92924.56;2093090;28;20531;-73
2023/07/23 08:42:54;;;;;;;1.70;1.20;;;;;;;20.48;93.52;92914.06;2106455;28;20146;-73